Time;durP1;ratioP1;P1;durP2;ratioP2;P2;SDS_P1;SDS_P2;PMS_P1;PMS_P2;Temp;Humidity;BMP_temperature;BMP_pressure;BME280_temperature;BME280_humidity;BME280_pressure;Samples;Min_cycle;Max_cycle;Signal;HPM_P1;HPM_P2
2022/02/04 00:23:43;;;;;;;18.48;10.02;;;8.70;99.90;;;;;;5032974;28;20090;-40
2022/02/04 00:26:32;;;;;;;19.20;9.95;;;8.70;99.90;;;;;;5033341;28;20030;-37
2022/02/04 00:34:08;;;;;;;21.55;11.23;;;8.80;99.90;;;;;;5032653;28;20041;-39
2022/02/04 00:36:43;;;;;;;22.00;10.98;;;8.70;99.90;;;;;;5030954;28;20509;-39
2022/02/04 00:39:14;;;;;;;25.83;11.73;;;8.70;99.90;;;;;;5032386;28;20104;-41
2022/02/04 00:41:42;;;;;;;25.88;10.57;;;8.70;99.90;;;;;;5031566;28;20025;-39
2022/02/04 00:44:16;;;;;;;;;;;8.80;99.90;;;;;;5033405;28;20025;-39
2022/02/04 00:46:56;;;;;;;24.67;11.52;;;8.70;99.90;;;;;;5032627;28;19909;-36
2022/02/04 00:49:41;;;;;;;22.52;10.80;;;8.70;99.90;;;;;;5033058;28;20032;-37
2022/02/04 00:52:21;;;;;;;21.92;10.93;;;8.70;99.90;;;;;;5027893;28;20478;-47
2022/02/04 00:54:55;;;;;;;17.08;9.57;;;8.70;99.90;;;;;;5024637;28;20075;-51
2022/02/04 01:06:28;;;;;;;23.65;10.90;;;8.60;99.90;;;;;;5021187;28;20548;-40
2022/02/04 01:27:20;;;;;;;22.25;9.50;;;8.60;99.90;;;;;;5031138;28;20504;-40
2022/02/04 01:32:20;;;;;;;17.73;8.32;;;8.60;99.90;;;;;;5018678;28;20037;-38
2022/02/04 01:34:46;;;;;;;17.35;8.48;;;8.60;99.90;;;;;;5023601;28;20026;-38
2022/02/04 01:37:11;;;;;;;17.02;8.45;;;8.60;99.90;;;;;;5030255;28;20028;-39
2022/02/04 01:39:37;;;;;;;15.70;9.27;;;8.60;99.90;;;;;;5032502;28;20048;-40
2022/02/04 01:42:03;;;;;;;14.98;7.80;;;8.60;99.90;;;;;;5032908;28;20032;-46
2022/02/04 01:44:29;;;;;;;13.80;8.32;;;8.60;99.90;;;;;;5031056;28;20029;-38
2022/02/04 01:46:55;;;;;;;12.13;7.57;;;8.60;99.90;;;;;;5014704;28;20057;-39
2022/02/04 01:49:27;;;;;;;14.75;8.75;;;8.60;99.90;;;;;;5026135;28;20025;-42
2022/02/04 01:51:53;;;;;;;19.52;8.15;;;8.60;99.90;;;;;;5019455;28;20030;-56
2022/02/04 01:54:18;;;;;;;13.65;7.38;;;8.60;99.90;;;;;;5013330;28;20542;-39
2022/02/04 01:56:44;;;;;;;13.73;8.38;;;8.60;99.90;;;;;;5034411;28;20482;-40
2022/02/04 01:59:10;;;;;;;19.58;7.75;;;8.60;99.90;;;;;;5032630;28;20397;-39
2022/02/04 02:01:36;;;;;;;16.80;7.78;;;8.60;99.90;;;;;;5026762;28;20485;-38
2022/02/04 02:04:04;;;;;;;17.80;7.25;;;8.60;99.90;;;;;;5012850;28;20061;-39
2022/02/04 02:07:11;;;;;;;20.10;8.70;;;8.60;99.90;;;;;;5028598;28;20033;-38
2022/02/04 02:10:22;;;;;;;15.98;7.25;;;8.60;99.90;;;;;;5027766;28;20041;-39
2022/02/04 02:12:26;;;;;;;19.20;8.10;;;8.60;99.90;;;;;;5020193;28;20034;-40
2022/02/04 02:15:04;;;;;;;12.48;7.30;;;8.60;99.90;;;;;;5031206;28;20500;-38
2022/02/04 02:45:00;;;;;;;10.05;6.15;;;8.60;99.90;;;;;;5013865;28;20033;-40
2022/02/04 02:47:40;;;;;;;9.07;5.90;;;8.60;99.90;;;;;;5023651;28;20054;-40
2022/02/04 03:00:47;;;;;;;12.13;6.35;;;8.60;99.90;;;;;;5026754;28;20117;-37
2022/02/04 03:03:14;;;;;;;10.07;6.00;;;8.70;99.90;;;;;;5016238;28;20034;-38
2022/02/04 03:05:40;;;;;;;11.68;6.15;;;8.60;99.90;;;;;;5015965;28;20018;-38
2022/02/04 03:08:06;;;;;;;10.02;5.88;;;8.60;99.90;;;;;;5015863;28;20034;-38
2022/02/04 03:10:32;;;;;;;12.35;5.72;;;8.60;99.90;;;;;;5015667;28;20502;-40
2022/02/04 03:12:58;;;;;;;10.07;6.00;;;8.60;99.90;;;;;;5015949;28;20068;-39
2022/02/04 03:15:24;;;;;;;10.23;6.07;;;8.50;99.90;;;;;;5018513;28;20049;-39
2022/02/04 03:18:03;;;;;;;14.68;6.35;;;8.60;99.90;;;;;;5035364;28;20030;-39
2022/02/04 03:20:30;;;;;;;12.35;5.43;;;8.60;99.90;;;;;;5031767;28;20028;-39
2022/02/04 03:22:57;;;;;;;9.70;5.55;;;8.70;99.90;;;;;;5015543;28;20100;-39
2022/02/04 03:25:24;;;;;;;13.07;5.80;;;8.70;99.90;;;;;;5015601;28;20029;-38
2022/02/04 03:27:54;;;;;;;8.88;5.70;;;8.70;99.90;;;;;;5019035;28;20109;-40
2022/02/04 03:30:32;;;;;;;8.48;4.70;;;8.70;99.90;;;;;;5015313;28;20026;-40
2022/02/04 03:33:03;;;;;;;13.52;4.97;;;8.60;99.90;;;;;;5015462;28;20030;-40
2022/02/04 03:35:28;;;;;;;11.60;5.47;;;8.70;99.90;;;;;;5015975;28;20390;-41
2022/02/04 03:37:55;;;;;;;14.15;5.70;;;8.60;99.90;;;;;;5035006;28;20022;-38
2022/02/04 03:40:22;;;;;;;8.15;5.03;;;8.60;99.90;;;;;;5034822;28;20514;-41
2022/02/04 03:42:49;;;;;;;9.82;4.88;;;8.60;99.90;;;;;;5034956;28;20021;-67
2022/02/04 03:45:16;;;;;;;9.10;5.40;;;8.50;99.90;;;;;;5033297;28;20025;-39
2022/02/04 03:47:42;;;;;;;9.73;5.43;;;8.60;99.90;;;;;;5018975;28;20029;-38
2022/02/04 03:50:07;;;;;;;10.20;6.22;;;8.50;99.90;;;;;;5014971;28;20034;-38
2022/02/04 03:52:33;;;;;;;7.28;4.97;;;8.50;99.90;;;;;;5034055;28;20078;-38
2022/02/04 03:54:59;;;;;;;9.55;4.82;;;8.50;99.90;;;;;;5035062;28;20017;-39
2022/02/04 03:57:25;;;;;;;9.43;4.90;;;8.50;99.90;;;;;;5015514;28;20037;-38
2022/02/04 03:59:50;;;;;;;11.02;5.10;;;8.40;99.90;;;;;;5015064;28;20554;-40
2022/02/04 04:02:16;;;;;;;8.63;5.25;;;8.50;99.90;;;;;;5014828;28;20060;-38
2022/02/04 04:04:42;;;;;;;10.65;4.90;;;8.50;99.90;;;;;;5015054;28;20114;-39
2022/02/04 04:07:08;;;;;;;9.50;5.30;;;8.50;99.90;;;;;;5033333;28;20489;-38
2022/02/04 04:09:37;;;;;;;11.50;5.18;;;8.50;99.90;;;;;;5032573;28;20092;-40
2022/02/04 04:12:04;;;;;;;10.55;4.95;;;8.50;99.90;;;;;;5034583;28;20437;-37
2022/02/04 04:14:30;;;;;;;9.40;5.15;;;8.50;99.90;;;;;;5034335;28;20035;-39
2022/02/04 04:16:55;;;;;;;10.55;5.80;;;8.50;99.90;;;;;;5033566;28;20026;-38
2022/02/04 04:19:21;;;;;;;8.82;5.35;;;8.50;99.90;;;;;;5032402;28;20425;-41
2022/02/04 04:21:46;;;;;;;11.70;4.97;;;8.50;99.90;;;;;;5034066;28;20104;-40
2022/02/04 04:24:13;;;;;;;8.55;5.15;;;8.50;99.90;;;;;;5034188;28;20033;-40
2022/02/04 04:26:40;;;;;;;7.80;4.63;;;8.60;99.90;;;;;;5033472;28;20351;-40
2022/02/04 04:29:07;;;;;;;9.75;4.75;;;8.60;99.90;;;;;;5033158;28;20030;-40
2022/02/04 04:31:32;;;;;;;6.68;3.95;;;8.50;99.90;;;;;;5034078;28;20025;-57
2022/02/04 04:33:58;;;;;;;10.05;4.43;;;8.60;99.90;;;;;;5034304;28;20028;-38
2022/02/04 04:36:24;;;;;;;5.03;3.25;;;8.60;99.90;;;;;;5019636;28;20080;-38
2022/02/04 04:41:32;;;;;;;12.20;3.90;;;8.60;99.90;;;;;;5014159;28;20038;-56
2022/02/04 05:30:34;;;;;;;5.78;2.55;;;8.50;99.90;;;;;;5018722;28;20129;-38
2022/02/04 05:33:00;;;;;;;6.82;2.85;;;8.50;99.90;;;;;;5013299;28;20061;-37
2022/02/04 05:35:25;;;;;;;6.47;2.40;;;8.50;99.90;;;;;;5011605;28;20046;-39
2022/02/04 05:37:51;;;;;;;6.55;2.63;;;8.50;99.90;;;;;;5031336;28;20390;-39
2022/02/04 05:40:20;;;;;;;5.50;3.00;;;8.50;99.90;;;;;;5032858;28;20104;-39
2022/02/04 05:42:53;;;;;;;3.85;2.33;;;8.50;99.90;;;;;;5018738;28;20490;-39
2022/02/04 05:45:22;;;;;;;6.38;2.20;;;8.50;99.90;;;;;;5013475;28;20402;-39
2022/02/04 05:47:52;;;;;;;6.97;2.05;;;8.50;99.90;;;;;;5030160;28;20018;-39
2022/02/04 05:50:46;;;;;;;4.53;1.63;;;8.50;99.90;;;;;;5032738;28;20079;-40
2022/02/04 05:53:16;;;;;;;6.75;2.20;;;8.50;99.90;;;;;;5032530;28;20021;-39
2022/02/04 05:58:31;;;;;;;2.50;1.88;;;8.60;99.90;;;;;;5031519;28;20037;-40
2022/02/04 06:04:20;;;;;;;6.70;2.25;;;8.50;99.90;;;;;;5017092;28;20033;-37
2022/02/04 06:11:43;;;;;;;9.30;2.40;;;8.50;99.90;;;;;;5032401;28;20061;-40
2022/02/04 06:24:48;;;;;;;4.85;1.85;;;8.60;99.90;;;;;;5014398;28;20038;-39
2022/02/04 06:27:14;;;;;;;5.25;2.08;;;8.60;99.90;;;;;;5012760;28;20536;-38
2022/02/04 06:29:40;;;;;;;7.82;2.25;;;8.60;99.90;;;;;;5015949;28;20448;-37
2022/02/04 06:32:06;;;;;;;13.75;3.10;;;8.60;99.90;;;;;;5031629;28;20033;-39
2022/02/04 06:34:32;;;;;;;5.03;2.00;;;8.60;99.90;;;;;;5016857;28;20033;-40
2022/02/04 06:36:58;;;;;;;3.58;2.20;;;8.70;99.90;;;;;;5016889;28;20478;-41
2022/02/04 06:39:24;;;;;;;9.45;2.33;;;8.70;99.90;;;;;;5016329;28;20045;-39
2022/02/04 06:41:49;;;;;;;9.70;2.58;;;8.60;99.90;;;;;;5017678;28;20029;-44
2022/02/04 06:44:15;;;;;;;2.60;2.17;;;8.70;99.90;;;;;;5016621;28;20018;-39
2022/02/04 06:46:41;;;;;;;12.95;2.83;;;8.70;99.90;;;;;;5017104;28;20266;-39
2022/02/04 06:49:06;;;;;;;7.13;2.25;;;8.70;99.90;;;;;;5036232;28;20029;-38
2022/02/04 06:51:32;;;;;;;4.97;2.33;;;8.70;99.90;;;;;;5035946;28;20072;-40
2022/02/04 06:53:57;;;;;;;4.07;2.38;;;8.70;99.90;;;;;;5036015;28;20669;-40
2022/02/04 06:56:23;;;;;;;2.83;1.90;;;8.70;99.90;;;;;;5035780;28;20030;-41
2022/02/04 06:58:49;;;;;;;8.55;2.67;;;8.80;99.90;;;;;;5035827;28;20581;-39
2022/02/04 07:01:16;;;;;;;4.85;2.35;;;8.80;99.90;;;;;;5035228;28;20070;-40
2022/02/04 07:03:41;;;;;;;5.70;2.10;;;8.90;99.90;;;;;;5035820;28;20025;-42
2022/02/04 07:06:10;;;;;;;5.78;2.53;;;8.80;99.90;;;;;;5035036;28;20152;-59
2022/02/04 07:08:47;;;;;;;4.55;2.80;;;8.80;99.90;;;;;;5035689;28;20049;-40
2022/02/04 07:11:47;;;;;;;4.30;2.42;;;8.90;99.90;;;;;;5017563;28;20485;-39
2022/02/04 07:14:21;;;;;;;3.33;2.58;;;8.80;99.90;;;;;;5015653;28;20112;-42
2022/02/04 07:22:03;;;;;;;7.30;3.17;;;8.80;99.90;;;;;;5035254;28;20124;-40
2022/02/04 07:24:28;;;;;;;6.68;3.83;;;8.80;99.90;;;;;;5035327;28;20061;-40
2022/02/04 07:26:54;;;;;;;10.45;4.18;;;8.80;99.90;;;;;;5035272;28;20033;-42
2022/02/04 07:29:20;;;;;;;4.40;3.97;;;8.80;99.90;;;;;;5035127;28;20486;-38
2022/02/04 07:31:47;;;;;;;4.35;3.65;;;8.70;99.90;;;;;;5031108;28;20032;-39
2022/02/04 07:34:21;;;;;;;6.68;4.10;;;8.80;99.90;;;;;;5035130;28;20390;-37
2022/02/04 07:42:00;;;;;;;7.55;3.65;;;8.80;99.90;;;;;;5029811;28;20236;-38
2022/02/04 07:44:26;;;;;;;6.88;4.20;;;8.80;99.90;;;;;;5033654;28;20021;-39
2022/02/04 07:46:51;;;;;;;7.20;4.25;;;8.80;99.90;;;;;;5033941;28;20500;-40
2022/02/04 07:49:17;;;;;;;10.93;4.82;;;8.90;99.90;;;;;;5022337;28;20109;-37
2022/02/04 07:51:43;;;;;;;5.45;4.57;;;8.90;99.90;;;;;;5025875;28;20040;-40
2022/02/04 07:54:09;;;;;;;6.43;4.68;;;8.80;99.90;;;;;;5034861;28;20052;-38
2022/02/04 07:56:35;;;;;;;7.32;5.40;;;8.80;99.90;;;;;;5044173;28;20021;-39
2022/02/04 07:59:07;;;;;;;8.15;5.25;;;8.80;99.90;;;;;;5038155;28;20477;-40
2022/02/04 08:01:33;;;;;;;8.70;5.35;;;8.80;99.90;;;;;;5014848;28;20030;-37
2022/02/04 08:07:09;;;;;;;12.52;6.03;;;8.90;99.90;;;;;;5024910;28;20090;-40
2022/02/04 08:22:53;;;;;;;8.35;5.47;;;8.90;99.90;;;;;;5030939;28;20108;-39
2022/02/04 08:28:20;;;;;;;10.45;5.75;;;9.00;99.90;;;;;;5021420;28;20030;-43
2022/02/04 08:30:58;;;;;;;8.85;5.45;;;9.00;99.90;;;;;;5027016;28;20036;-41
2022/02/04 08:33:59;;;;;;;7.40;5.43;;;9.00;99.90;;;;;;5025532;28;20048;-39
2022/02/04 08:55:12;;;;;;;7.43;5.05;;;9.30;99.90;;;;;;5027805;28;20033;-38
2022/02/04 08:58:26;;;;;;;11.05;4.22;;;9.30;99.90;;;;;;5032816;28;20485;-39
2022/02/04 09:00:40;;;;;;;5.60;4.43;;;9.30;99.90;;;;;;5033016;28;20033;-38
2022/02/04 09:03:14;;;;;;;4.57;3.67;;;9.30;99.90;;;;;;5031847;28;20026;-40
2022/02/04 09:05:43;;;;;;;6.40;4.13;;;9.40;99.90;;;;;;5014117;28;20359;-39
2022/02/04 09:08:21;;;;;;;7.10;4.65;;;9.40;99.90;;;;;;5020621;28;20477;-41
2022/02/04 09:10:48;;;;;;;5.40;3.97;;;9.40;99.90;;;;;;5031854;28;20085;-39
2022/02/04 09:18:57;;;;;;;6.57;4.32;;;9.50;99.90;;;;;;5033180;28;20464;-43
2022/02/04 09:21:49;;;;;;;5.45;4.40;;;9.40;99.90;;;;;;5033462;28;20389;-41
2022/02/04 09:24:14;;;;;;;6.65;4.43;;;9.40;99.90;;;;;;5031754;28;20025;-36
2022/02/04 09:26:42;;;;;;;5.35;4.07;;;9.50;99.90;;;;;;5021152;28;20037;-39
2022/02/04 09:29:08;;;;;;;7.13;4.13;;;9.40;99.90;;;;;;5013233;28;20022;-39
2022/02/04 09:31:36;;;;;;;6.72;4.28;;;9.40;99.90;;;;;;5020932;28;20040;-43
2022/02/04 09:34:03;;;;;;;5.18;3.97;;;9.40;99.90;;;;;;5025648;28;20124;-48
2022/02/04 09:36:29;;;;;;;6.47;4.23;;;9.40;99.90;;;;;;5021093;28;20429;-41
2022/02/04 09:38:55;;;;;;;5.03;4.32;;;9.40;99.90;;;;;;5029540;28;20291;-39
2022/02/04 09:41:21;;;;;;;6.38;4.57;;;9.30;99.90;;;;;;5028414;28;20482;-40
2022/02/04 09:43:51;;;;;;;8.23;4.63;;;9.40;99.90;;;;;;5024534;28;20061;-39
2022/02/04 09:46:18;;;;;;;7.00;4.75;;;9.40;99.90;;;;;;5015520;28;20309;-40
2022/02/04 09:48:48;;;;;;;6.07;4.70;;;9.60;99.90;;;;;;5025085;28;20026;-42
2022/02/04 09:51:17;;;;;;;5.22;3.83;;;9.60;99.90;;;;;;5029257;28;20025;-38
2022/02/04 10:07:30;;;;;;;4.82;4.32;;;9.70;99.90;;;;;;5031540;28;20051;-39
2022/02/04 10:13:18;;;;;;;6.88;3.42;;;9.70;99.90;;;;;;5016626;28;20048;-39
2022/02/04 10:16:21;;;;;;;3.40;3.10;;;9.80;99.90;;;;;;5025457;28;20045;-40
2022/02/04 10:19:04;;;;;;;3.33;2.95;;;9.90;99.90;;;;;;5032052;28;20104;-39
2022/02/04 10:21:29;;;;;;;3.60;3.30;;;9.80;99.90;;;;;;5036102;28;20034;-37
2022/02/04 10:23:58;;;;;;;2.85;2.63;;;9.90;99.90;;;;;;5033704;28;20026;-39
2022/02/04 10:26:25;;;;;;;7.03;2.67;;;9.90;99.90;;;;;;5034629;28;20072;-38
2022/02/04 10:28:51;;;;;;;3.63;3.17;;;10.00;99.90;;;;;;5032154;28;20537;-39
2022/02/04 10:31:21;;;;;;;3.10;2.63;;;10.10;99.90;;;;;;5017603;28;20125;-45
2022/02/04 10:34:11;;;;;;;4.10;3.28;;;10.10;99.90;;;;;;5027950;28;20053;-40
2022/02/04 10:36:51;;;;;;;6.95;3.03;;;10.10;99.90;;;;;;5034135;28;20088;-42
2022/02/04 10:42:16;;;;;;;3.78;2.88;;;10.10;99.90;;;;;;5035447;28;20128;-41
2022/02/04 10:45:22;;;;;;;3.40;2.90;;;10.10;99.90;;;;;;5036561;28;20077;-41
2022/02/04 10:48:07;;;;;;;2.70;2.50;;;10.10;99.90;;;;;;5034818;28;20017;-40
2022/02/04 10:56:19;;;;;;;8.15;2.92;;;10.20;99.90;;;;;;5020459;28;20064;-40
2022/02/04 11:04:21;;;;;;;4.43;3.28;;;10.20;99.90;;;;;;5033667;28;20041;-39
2022/02/04 11:31:04;;;;;;;2.28;2.08;;;9.90;99.90;;;;;;5032966;28;20429;-39
2022/02/04 11:36:31;;;;;;;2.17;1.98;;;10.00;99.90;;;;;;5032107;28;20030;-38
2022/02/04 11:51:32;;;;;;;4.80;2.45;;;9.90;99.90;;;;;;5032573;28;20041;-40
2022/02/04 11:57:18;;;;;;;2.78;1.80;;;9.80;99.90;;;;;;5015136;28;20040;-40
2022/02/04 11:59:47;;;;;;;2.65;1.90;;;9.80;99.90;;;;;;5017851;28;20049;-44
2022/02/04 12:02:29;;;;;;;5.22;2.30;;;9.80;99.90;;;;;;5031415;28;20500;-39
2022/02/04 12:05:12;;;;;;;3.15;1.95;;;9.80;99.90;;;;;;5032213;28;20462;-43
2022/02/04 12:07:51;;;;;;;3.33;2.05;;;9.80;99.90;;;;;;5028425;28;20041;-39
2022/02/04 12:10:41;;;;;;;1.90;1.80;;;9.80;99.90;;;;;;5029761;28;20056;-40
2022/02/04 12:13:10;;;;;;;3.13;2.35;;;9.70;99.90;;;;;;5031208;28;20052;-37
2022/02/04 12:15:37;;;;;;;3.03;1.90;;;9.70;99.90;;;;;;5014781;28;20072;-41
2022/02/04 12:18:14;;;;;;;3.42;1.55;;;9.70;99.90;;;;;;5014891;28;20037;-42
2022/02/04 12:23:29;;;;;;;7.03;2.30;;;9.70;99.90;;;;;;5021000;28;20108;-41
2022/02/04 12:26:08;;;;;;;3.83;1.90;;;9.60;99.90;;;;;;5014377;28;20022;-40
2022/02/04 12:28:52;;;;;;;4.30;1.98;;;9.60;99.90;;;;;;5019005;28;20481;-38
2022/02/04 12:31:32;;;;;;;2.20;1.95;;;9.60;99.90;;;;;;5024391;28;20065;-41
2022/02/04 12:34:21;;;;;;;3.53;2.00;;;9.60;99.90;;;;;;5027164;28;20055;-38
2022/02/04 12:36:55;;;;;;;5.50;2.22;;;9.60;99.90;;;;;;5022834;28;20037;-39
2022/02/04 12:39:23;;;;;;;4.68;2.30;;;9.60;99.90;;;;;;5026638;28;20030;-43
2022/02/04 12:41:51;;;;;;;5.28;2.20;;;9.60;99.90;;;;;;5014941;28;20045;-45
2022/02/04 12:44:18;;;;;;;3.55;2.47;;;9.60;99.90;;;;;;5029262;28;20084;-42
2022/02/04 12:46:46;;;;;;;6.32;2.53;;;9.50;99.90;;;;;;5014039;28;20044;-42
2022/02/04 12:49:13;;;;;;;;;;;9.40;99.90;;;;;;5022529;28;20067;-44
2022/02/04 12:52:11;;;;;;;4.88;2.10;;;9.30;99.90;;;;;;5014050;28;19913;-41
2022/02/04 12:54:53;;;;;;;2.67;1.83;;;9.20;99.90;;;;;;5028821;28;20425;-41
2022/02/04 12:57:33;;;;;;;9.40;2.30;;;9.20;99.90;;;;;;5029164;28;20041;-47
2022/02/04 13:03:04;;;;;;;5.47;1.67;;;9.00;99.90;;;;;;5013905;28;20030;-40
2022/02/04 13:11:08;;;;;;;7.53;2.90;;;8.60;99.90;;;;;;5030795;28;20052;-38
2022/02/04 13:13:47;;;;;;;6.45;2.50;;;8.50;99.90;;;;;;5032584;28;20120;-39
2022/02/04 13:16:14;;;;;;;1.92;1.48;;;8.50;99.90;;;;;;5018344;28;20113;-38
2022/02/04 13:18:40;;;;;;;11.77;3.33;;;8.50;99.90;;;;;;5032824;28;20029;-41
2022/02/04 13:21:06;;;;;;;8.60;2.50;;;8.40;99.90;;;;;;5020707;28;20025;-39
2022/02/04 13:23:33;;;;;;;2.17;1.98;;;8.40;99.90;;;;;;5013492;28;20087;-41
2022/02/04 13:26:05;;;;;;;8.60;2.88;;;8.30;99.90;;;;;;5028560;28;20028;-40
2022/02/04 13:28:40;;;;;;;2.45;2.25;;;8.30;99.90;;;;;;5031918;28;20505;-40
2022/02/04 13:31:13;;;;;;;4.85;2.45;;;8.30;99.90;;;;;;5017591;28;20038;-35
2022/02/04 13:33:38;;;;;;;9.25;2.67;;;8.20;99.90;;;;;;5013700;28;20034;-39
2022/02/04 13:36:32;;;;;;;4.72;2.33;;;8.20;99.90;;;;;;5015134;28;20095;-39
2022/02/04 13:44:38;;;;;;;6.35;0.60;;;7.30;99.90;;;;;;5026178;28;20441;-37
2022/02/04 14:00:49;;;;;;;0.95;0.28;;;5.40;99.90;;;;;;5030577;28;20117;-48
2022/02/04 14:03:19;;;;;;;0.38;0.35;;;5.30;99.90;;;;;;5031746;28;20355;-53
2022/02/04 14:05:52;;;;;;;1.65;0.35;;;5.30;99.90;;;;;;5029459;28;20408;-35
2022/02/04 14:08:28;;;;;;;6.75;0.52;;;5.10;99.90;;;;;;5025511;28;20098;-35
2022/02/04 14:10:59;;;;;;;2.58;0.77;;;5.00;99.90;;;;;;5027906;28;20046;-36
2022/02/04 14:13:28;;;;;;;1.48;0.43;;;4.90;99.90;;;;;;5030023;28;20026;-38
2022/02/04 14:15:58;;;;;;;0.85;0.40;;;4.80;99.90;;;;;;5030961;28;20075;-37
2022/02/04 14:18:25;;;;;;;1.58;0.70;;;4.70;99.90;;;;;;5029474;28;20544;-36
2022/02/04 14:20:51;;;;;;;1.40;0.43;;;4.60;99.90;;;;;;5022040;28;20500;-39
2022/02/04 14:23:17;;;;;;;0.25;0.25;;;4.60;99.90;;;;;;5012841;28;20112;-38
2022/02/04 14:25:56;;;;;;;0.98;0.38;;;4.50;99.90;;;;;;5026458;28;20496;-52
2022/02/04 14:28:32;;;;;;;3.30;0.40;;;4.50;99.90;;;;;;5031934;28;20038;-38
2022/02/04 14:31:05;;;;;;;2.00;0.30;;;4.50;99.90;;;;;;5030664;28;20068;-37
2022/02/04 14:34:37;;;;;;;1.33;0.60;;;4.40;99.90;;;;;;5030985;28;20482;-38
2022/02/04 14:50:36;;;;;;;0.28;0.28;;;4.40;99.90;;;;;;5031002;28;20554;-34
2022/02/04 14:53:05;;;;;;;0.73;0.50;;;4.40;99.90;;;;;;5012560;28;20038;-38
2022/02/04 15:03:34;;;;;;;0.30;0.30;;;4.60;99.90;;;;;;5036191;28;20042;-39
2022/02/04 15:06:07;;;;;;;0.20;0.20;;;4.50;99.90;;;;;;5034684;28;20033;-39
2022/02/04 15:08:36;;;;;;;0.40;0.30;;;4.50;99.90;;;;;;5035006;28;20101;-40
2022/02/04 15:11:10;;;;;;;1.60;0.70;;;4.60;99.90;;;;;;5031689;28;20049;-37
2022/02/04 15:13:36;;;;;;;2.72;0.68;;;4.60;99.90;;;;;;5020245;28;20033;-45
2022/02/04 15:16:06;;;;;;;7.53;0.38;;;4.60;99.90;;;;;;5029599;28;20048;-39
2022/02/04 15:18:33;;;;;;;4.07;0.47;;;4.70;99.90;;;;;;5020335;28;20034;-38
2022/02/04 15:21:00;;;;;;;2.30;0.70;;;4.60;99.90;;;;;;5016923;28;20026;-38
2022/02/04 15:23:26;;;;;;;1.15;0.50;;;4.60;99.90;;;;;;5017158;28;20029;-39
2022/02/04 15:25:55;;;;;;;8.38;1.15;;;4.60;99.90;;;;;;5022366;28;20017;-40
2022/02/04 15:33:45;;;;;;;3.63;0.60;;;4.60;99.90;;;;;;5017464;28;20036;-39
2022/02/04 15:36:10;;;;;;;0.75;0.45;;;4.60;99.90;;;;;;5033702;28;20493;-38
2022/02/04 15:38:36;;;;;;;0.73;0.38;;;4.60;99.90;;;;;;5034209;28;20022;-39
2022/02/04 15:41:02;;;;;;;2.92;0.50;;;4.60;99.90;;;;;;5031936;28;20029;-38
2022/02/04 15:43:30;;;;;;;1.55;0.75;;;4.60;99.90;;;;;;5033318;28;20100;-39
2022/02/04 15:46:23;;;;;;;8.48;0.85;;;4.60;99.90;;;;;;5032785;28;20477;-54
2022/02/04 16:04:30;;;;;;;1.48;1.05;;;4.40;99.90;;;;;;5033304;28;20113;-36
2022/02/04 16:06:56;;;;;;;8.70;0.50;;;4.40;99.90;;;;;;5033631;28;20087;-41
2022/02/04 16:09:23;;;;;;;0.17;0.17;;;4.40;99.90;;;;;;5033930;28;20013;-39
2022/02/04 16:14:47;;;;;;;2.00;0.55;;;4.50;99.90;;;;;;5032918;28;20302;-36
2022/02/04 16:17:21;;;;;;;3.83;0.28;;;4.40;99.90;;;;;;5027412;28;20391;-38
2022/02/04 16:20:04;;;;;;;1.48;0.25;;;4.40;99.90;;;;;;5031284;28;20109;-39
2022/02/04 16:22:43;;;;;;;4.65;0.60;;;4.50;99.90;;;;;;5033619;28;20037;-38
2022/02/04 16:25:32;;;;;;;1.90;0.20;;;4.50;99.90;;;;;;5030930;28;20026;-37
2022/02/04 16:30:38;;;;;;;1.25;0.60;;;4.60;99.90;;;;;;5021860;28;20121;-38
2022/02/04 16:33:04;;;;;;;3.28;0.45;;;4.60;99.90;;;;;;5032181;28;20120;-39
2022/02/04 16:35:30;;;;;;;3.38;0.60;;;4.60;99.90;;;;;;5028164;28;20087;-39
2022/02/04 16:38:04;;;;;;;9.95;0.65;;;4.60;99.90;;;;;;5032181;28;20026;-38
2022/02/04 16:40:34;;;;;;;5.05;0.63;;;4.70;99.90;;;;;;5028984;28;20195;-41
2022/02/04 16:43:02;;;;;;;6.60;1.40;;;4.80;99.90;;;;;;5033401;28;20025;-38
2022/02/04 16:45:28;;;;;;;2.47;0.40;;;4.70;99.90;;;;;;5024471;28;20017;-39
2022/02/04 16:47:57;;;;;;;11.90;1.17;;;4.60;99.90;;;;;;5022998;28;20065;-39
2022/02/04 16:50:22;;;;;;;4.03;0.73;;;4.40;99.90;;;;;;5017108;28;20028;-41
2022/02/04 16:52:49;;;;;;;1.83;0.50;;;4.40;99.90;;;;;;5029940;28;20022;-43
2022/02/04 16:55:15;;;;;;;2.97;0.50;;;4.30;99.90;;;;;;5029897;28;20025;-37
2022/02/04 16:57:41;;;;;;;4.22;0.60;;;4.30;99.90;;;;;;5033519;28;20053;-36
2022/02/04 17:00:23;;;;;;;10.07;0.95;;;4.30;99.90;;;;;;5032251;28;20057;-38
2022/02/04 17:02:51;;;;;;;7.13;1.10;;;4.20;99.90;;;;;;5021948;28;20033;-38
2022/02/04 17:05:18;;;;;;;4.95;1.48;;;4.20;99.90;;;;;;5033739;28;20556;-38
2022/02/04 17:07:52;;;;;;;2.15;0.57;;;4.20;99.90;;;;;;5031673;28;20486;-38
2022/02/04 17:10:25;;;;;;;10.02;1.00;;;4.30;99.90;;;;;;5033317;28;20104;-38
2022/02/04 17:12:58;;;;;;;6.78;1.40;;;4.30;99.90;;;;;;5031768;28;20037;-38
2022/02/04 17:15:24;;;;;;;2.38;0.90;;;4.30;99.90;;;;;;5033371;28;20032;-37
2022/02/04 17:17:50;;;;;;;7.22;1.05;;;4.30;99.90;;;;;;5033136;28;20119;-37
2022/02/04 17:20:16;;;;;;;3.70;1.17;;;4.30;99.90;;;;;;5025977;28;20030;-38
2022/02/04 17:22:43;;;;;;;1.20;0.68;;;4.40;99.90;;;;;;5014633;28;20171;-39
2022/02/04 17:25:11;;;;;;;10.82;1.30;;;4.40;99.90;;;;;;5030534;28;20474;-37
2022/02/04 17:27:38;;;;;;;;;;;4.40;99.90;;;;;;5022633;28;20029;-38
2022/02/04 17:30:06;;;;;;;6.93;1.15;;;4.50;99.90;;;;;;5013227;28;19909;-39
2022/02/04 17:32:33;;;;;;;5.55;1.98;;;4.60;99.90;;;;;;5014080;28;20141;-37
2022/02/04 17:34:58;;;;;;;11.10;1.73;;;4.50;99.90;;;;;;5031713;28;20033;-39
2022/02/04 17:37:25;;;;;;;9.88;1.52;;;4.40;99.90;;;;;;5031985;28;20021;-37
2022/02/04 17:39:53;;;;;;;6.05;1.13;;;4.40;99.90;;;;;;5023117;28;20509;-37
2022/02/04 17:42:23;;;;;;;3.67;1.33;;;4.40;99.90;;;;;;5025240;28;20040;-37
2022/02/04 17:44:50;;;;;;;9.45;1.30;;;4.50;99.90;;;;;;5018815;28;20111;-37
2022/02/04 17:47:16;;;;;;;6.70;2.03;;;4.50;99.90;;;;;;5032174;28;20103;-39
2022/02/04 17:49:59;;;;;;;16.15;2.08;;;4.60;99.90;;;;;;5025964;28;20108;-40
2022/02/04 17:52:36;;;;;;;6.65;1.90;;;4.60;99.90;;;;;;5030371;28;20030;-36
2022/02/04 17:55:09;;;;;;;8.68;1.58;;;4.70;99.90;;;;;;5032826;28;20103;-39
2022/02/04 17:58:42;;;;;;;12.27;2.72;;;4.80;99.90;;;;;;5032230;28;20021;-38
2022/02/04 18:06:05;;;;;;;16.73;2.15;;;4.80;99.90;;;;;;5032820;28;20033;-38
2022/02/04 18:08:30;;;;;;;23.20;2.20;;;4.80;99.90;;;;;;5032976;28;20104;-39
2022/02/04 18:11:01;;;;;;;3.05;1.98;;;4.90;99.90;;;;;;5032586;28;20130;-37
2022/02/04 18:13:27;;;;;;;8.43;2.00;;;4.90;99.90;;;;;;5032975;28;20033;-38
2022/02/04 18:15:52;;;;;;;9.75;3.20;;;5.00;99.90;;;;;;5014389;28;20037;-37
2022/02/04 18:18:19;;;;;;;9.25;2.78;;;5.00;99.90;;;;;;5012888;28;20054;-39
2022/02/04 18:20:45;;;;;;;4.50;1.95;;;5.10;99.90;;;;;;5011646;28;20034;-37
2022/02/04 18:23:19;;;;;;;11.80;2.65;;;5.00;99.90;;;;;;5012905;28;20470;-39
2022/02/04 18:25:45;;;;;;;12.88;2.50;;;5.00;99.90;;;;;;5013201;28;20382;-39
2022/02/04 18:28:11;;;;;;;15.30;2.60;;;5.00;99.90;;;;;;5013199;28;20026;-38
2022/02/04 18:30:37;;;;;;;10.98;2.55;;;5.00;99.90;;;;;;5013603;28;20038;-37
2022/02/04 18:33:03;;;;;;;24.20;3.42;;;5.10;99.90;;;;;;5036409;28;20029;-39
2022/02/04 18:35:30;;;;;;;11.63;1.75;;;5.10;99.90;;;;;;5036393;28;20393;-38
2022/02/04 18:41:10;;;;;;;4.07;1.70;;;5.30;99.90;;;;;;5035968;28;20509;-46
2022/02/04 18:48:57;;;;;;;5.60;1.83;;;5.50;99.90;;;;;;5015537;28;20490;-35
2022/02/04 18:54:12;;;;;;;8.88;3.35;;;5.50;99.90;;;;;;5016525;28;20069;-36
2022/02/04 18:59:25;;;;;;;8.30;2.20;;;5.50;99.90;;;;;;5018792;28;20112;-38
2022/02/04 19:01:51;;;;;;;21.33;3.15;;;5.50;99.90;;;;;;5028793;28;20077;-39
2022/02/04 19:04:21;;;;;;;21.38;3.28;;;5.50;99.90;;;;;;5035823;28;20060;-39
2022/02/04 19:06:54;;;;;;;4.65;2.45;;;5.40;99.90;;;;;;5031920;28;20083;-39
2022/02/04 19:09:20;;;;;;;20.10;2.63;;;5.50;99.90;;;;;;5034161;28;20382;-41
2022/02/04 19:11:51;;;;;;;13.80;2.08;;;5.60;99.90;;;;;;5035583;28;20120;-39
2022/02/04 19:14:31;;;;;;;14.05;3.55;;;5.70;99.90;;;;;;5035929;28;20029;-39
2022/02/04 19:19:44;;;;;;;11.82;2.45;;;5.80;99.90;;;;;;5035552;28;20092;-37
2022/02/04 19:24:39;;;;;;;9.02;2.40;;;5.90;99.90;;;;;;5018003;28;20037;-38
2022/02/04 19:27:05;;;;;;;10.95;2.53;;;5.90;99.90;;;;;;5035757;28;20026;-40
2022/02/04 19:29:32;;;;;;;6.53;2.65;;;5.90;99.90;;;;;;5033765;28;20037;-38
2022/02/04 19:32:04;;;;;;;8.65;2.42;;;5.90;99.90;;;;;;5035405;28;20064;-38
2022/02/04 19:34:30;;;;;;;6.90;2.17;;;5.90;99.90;;;;;;5035615;28;20390;-42
2022/02/04 19:36:57;;;;;;;24.02;3.30;;;5.90;99.90;;;;;;5035457;28;20112;-37
2022/02/04 19:39:28;;;;;;;10.50;2.40;;;5.90;99.90;;;;;;5028463;28;20381;-38
2022/02/04 19:42:08;;;;;;;9.23;2.10;;;5.90;99.90;;;;;;5015098;28;20489;-38
2022/02/04 19:44:36;;;;;;;16.27;3.08;;;5.90;99.90;;;;;;5015742;28;20026;-38
2022/02/04 19:47:08;;;;;;;9.63;2.38;;;5.90;99.90;;;;;;5015401;28;20025;-38
2022/02/04 19:49:49;;;;;;;13.25;2.05;;;5.90;99.90;;;;;;5031452;28;20033;-38
2022/02/04 19:52:23;;;;;;;5.03;2.10;;;5.80;99.90;;;;;;5015548;28;20375;-39